Time;durP1;ratioP1;P1;durP2;ratioP2;P2;SDS_P1;SDS_P2;PMS_P1;PMS_P2;Temp;Humidity;BMP_temperature;BMP_pressure;BME280_temperature;BME280_humidity;BME280_pressure;Samples;Min_cycle;Max_cycle;Signal;HPM_P1;HPM_P2
2022/06/07 00:00:10;;;;;;;1.50;1.15;;;;;;;;;;5145708;27;20864;-20
2022/06/07 00:02:38;;;;;;;1.40;1.02;;;;;;;;;;5151944;27;20226;-19
2022/06/07 00:05:06;;;;;;;2.55;1.10;;;;;;;;;;5142174;27;20322;-20
2022/06/07 00:07:33;;;;;;;2.22;1.42;;;;;;;;;;5147560;27;20231;-19
2022/06/07 00:10:00;;;;;;;2.35;1.40;;;;;;;;;;5139900;27;20231;-19
2022/06/07 00:12:29;;;;;;;1.20;1.10;;;;;;;;;;5153256;27;20249;-19
2022/06/07 00:14:57;;;;;;;1.30;1.02;;;;;;;;;;5152993;27;20231;-19
2022/06/07 00:17:24;;;;;;;4.78;1.48;;;;;;;;;;5138236;27;20259;-19
2022/06/07 00:19:51;;;;;;;7.65;1.45;;;;;;;;;;5153560;27;20569;-20
2022/06/07 00:22:19;;;;;;;1.48;1.10;;;;;;;;;;5139244;27;20944;-20
2022/06/07 00:24:46;;;;;;;2.78;1.45;;;;;;;;;;5152388;27;20241;-20
2022/06/07 00:27:14;;;;;;;1.67;1.58;;;;;;;;;;5153216;27;20230;-20
2022/06/07 00:29:43;;;;;;;4.00;1.40;;;;;;;;;;5152981;27;20223;-20
2022/06/07 00:32:10;;;;;;;1.40;1.30;;;;;;;;;;5144245;27;20326;-19
2022/06/07 00:34:37;;;;;;;1.58;1.20;;;;;;;;;;5150749;27;20322;-19
2022/06/07 00:37:05;;;;;;;1.50;1.00;;;;;;;;;;5151122;27;20852;-19
2022/06/07 00:39:32;;;;;;;2.20;1.48;;;;;;;;;;5152945;27;20231;-19
2022/06/07 00:42:00;;;;;;;2.05;1.52;;;;;;;;;;5152757;27;20226;-19
2022/06/07 00:44:29;;;;;;;2.90;1.33;;;;;;;;;;5152354;27;20230;-20
2022/06/07 00:46:59;;;;;;;4.30;1.50;;;;;;;;;;5152532;27;20764;-19
2022/06/07 00:49:27;;;;;;;1.48;1.23;;;;;;;;;;5152547;27;20219;-19
2022/06/07 00:51:54;;;;;;;3.25;1.40;;;;;;;;;;5152874;27;20234;-20
2022/06/07 00:54:21;;;;;;;3.80;1.35;;;;;;;;;;5136091;27;20716;-20
2022/06/07 00:56:49;;;;;;;2.15;1.50;;;;;;;;;;5146048;27;20219;-20
2022/06/07 00:59:16;;;;;;;3.88;1.73;;;;;;;;;;5141017;27;20296;-20
2022/06/07 01:01:44;;;;;;;2.78;1.38;;;;;;;;;;5152592;27;20242;-19
2022/06/07 01:04:12;;;;;;;2.92;1.48;;;;;;;;;;5136964;27;20662;-20
2022/06/07 01:12:10;;;;;;;2.80;2.03;;;;;;;;;;5152558;27;20249;-20
2022/06/07 01:14:38;;;;;;;4.03;2.22;;;;;;;;;;5133204;27;20231;-20
2022/06/07 01:17:06;;;;;;;2.97;2.17;;;;;;;;;;5145467;27;20227;-20
2022/06/07 01:19:35;;;;;;;7.88;3.35;;;;;;;;;;5146509;27;20303;-20
2022/06/07 01:22:04;;;;;;;4.15;3.08;;;;;;;;;;5147131;27;20231;-20
2022/06/07 01:24:31;;;;;;;3.38;2.90;;;;;;;;;;5135048;27;20241;-20
2022/06/07 01:26:58;;;;;;;3.53;3.22;;;;;;;;;;5145268;27;21073;-20
2022/06/07 01:29:26;;;;;;;4.03;3.20;;;;;;;;;;5149022;27;21090;-20
2022/06/07 01:31:53;;;;;;;5.93;3.60;;;;;;;;;;5144531;27;20264;-20
2022/06/07 01:34:21;;;;;;;5.47;3.80;;;;;;;;;;5150262;27;20230;-20
2022/06/07 01:36:48;;;;;;;7.82;3.58;;;;;;;;;;5141568;27;20223;-20
2022/06/07 01:42:02;;;;;;;5.13;3.30;;;;;;;;;;5152128;27;20237;-19
2022/06/07 01:44:30;;;;;;;7.18;3.95;;;;;;;;;;5145089;27;20233;-20
2022/06/07 01:46:59;;;;;;;4.88;3.53;;;;;;;;;;5135732;27;20238;-20
2022/06/07 01:49:27;;;;;;;5.75;3.60;;;;;;;;;;5150869;27;20227;-20
2022/06/07 01:51:54;;;;;;;4.05;2.65;;;;;;;;;;5152174;27;21043;-20
2022/06/07 01:54:23;;;;;;;4.75;3.50;;;;;;;;;;5144009;27;20669;-20
2022/06/07 01:56:50;;;;;;;4.57;3.33;;;;;;;;;;5151798;27;20313;-20
2022/06/07 01:59:18;;;;;;;5.28;2.97;;;;;;;;;;5150119;27;20222;-20
2022/06/07 02:01:46;;;;;;;5.13;3.17;;;;;;;;;;5140560;27;20689;-20
2022/06/07 02:04:13;;;;;;;4.63;2.65;;;;;;;;;;5137352;27;20266;-20
2022/06/07 02:06:41;;;;;;;4.95;3.00;;;;;;;;;;5137488;27;20310;-20
2022/06/07 02:09:08;;;;;;;5.13;3.80;;;;;;;;;;5151893;27;20249;-19
2022/06/07 02:11:37;;;;;;;4.50;3.90;;;;;;;;;;5151807;27;20247;-20
2022/06/07 02:14:05;;;;;;;4.95;3.22;;;;;;;;;;5151902;27;20257;-20
2022/06/07 02:16:32;;;;;;;5.18;4.10;;;;;;;;;;5142877;27;20660;-20
2022/06/07 02:19:00;;;;;;;6.38;4.40;;;;;;;;;;5142404;27;20234;-19
2022/06/07 02:21:27;;;;;;;7.85;4.35;;;;;;;;;;5162685;22;20245;-22
2022/06/07 02:23:54;;;;;;;4.63;3.58;;;;;;;;;;5153934;27;20321;-21
2022/06/07 02:26:23;;;;;;;6.00;4.18;;;;;;;;;;5153494;27;20227;-21
2022/06/07 02:28:53;;;;;;;6.82;4.40;;;;;;;;;;5153438;27;20231;-20
2022/06/07 02:31:20;;;;;;;4.72;4.22;;;;;;;;;;5150461;27;20229;-20
2022/06/07 02:33:48;;;;;;;5.22;3.63;;;;;;;;;;5153794;27;20279;-21
2022/06/07 02:36:16;;;;;;;5.55;3.85;;;;;;;;;;5152552;27;20698;-21
2022/06/07 02:38:43;;;;;;;5.03;3.85;;;;;;;;;;5147017;27;20231;-21
2022/06/07 02:41:11;;;;;;;4.07;3.67;;;;;;;;;;5143989;27;20686;-20
2022/06/07 02:43:38;;;;;;;6.03;4.20;;;;;;;;;;5152275;27;20230;-21
2022/06/07 02:46:07;;;;;;;6.20;3.80;;;;;;;;;;5152296;27;20222;-21
2022/06/07 02:48:35;;;;;;;5.30;3.55;;;;;;;;;;5152324;27;20226;-21
2022/06/07 02:51:02;;;;;;;6.47;4.45;;;;;;;;;;5154156;27;20223;-21
2022/06/07 02:53:30;;;;;;;6.55;4.53;;;;;;;;;;5155053;27;20238;-20
2022/06/07 02:55:57;;;;;;;5.55;3.95;;;;;;;;;;5149209;27;20223;-21
2022/06/07 02:58:25;;;;;;;5.80;4.82;;;;;;;;;;5147376;27;20230;-20
2022/06/07 03:00:52;;;;;;;7.55;4.90;;;;;;;;;;5144833;27;20235;-20
2022/06/07 03:03:21;;;;;;;7.90;4.85;;;;;;;;;;5154845;27;20332;-20
2022/06/07 03:05:48;;;;;;;6.25;4.75;;;;;;;;;;5154386;27;20230;-21
2022/06/07 03:08:19;;;;;;;5.75;4.30;;;;;;;;;;5154578;27;20226;-20
2022/06/07 03:10:47;;;;;;;5.53;4.30;;;;;;;;;;5151059;27;20220;-20
2022/06/07 03:13:14;;;;;;;6.40;4.25;;;;;;;;;;5154546;27;20288;-21
2022/06/07 03:15:42;;;;;;;7.57;4.10;;;;;;;;;;5150476;27;20231;-20
2022/06/07 03:18:09;;;;;;;6.82;4.55;;;;;;;;;;5154384;27;20261;-21
2022/06/07 03:20:38;;;;;;;6.10;4.60;;;;;;;;;;5154095;27;20254;-21
2022/06/07 03:23:07;;;;;;;6.32;5.32;;;;;;;;;;5149801;27;20246;-21
2022/06/07 03:25:34;;;;;;;5.32;4.75;;;;;;;;;;5154498;27;20235;-21
2022/06/07 03:28:03;;;;;;;8.20;5.15;;;;;;;;;;5144511;27;20233;-20
2022/06/07 03:30:30;;;;;;;5.85;5.15;;;;;;;;;;5158516;27;20605;-20
2022/06/07 03:32:58;;;;;;;7.30;5.38;;;;;;;;;;5150670;27;20266;-21
2022/06/07 03:35:25;;;;;;;7.22;5.00;;;;;;;;;;5153991;27;20230;-21
2022/06/07 03:37:54;;;;;;;9.05;6.20;;;;;;;;;;5154060;27;20227;-21
2022/06/07 03:43:03;;;;;;;8.68;6.38;;;;;;;;;;5152607;27;20716;-21
2022/06/07 03:45:31;;;;;;;10.55;6.22;;;;;;;;;;5153212;27;20231;-21
2022/06/07 03:47:58;;;;;;;7.75;5.97;;;;;;;;;;5153884;27;20315;-20
2022/06/07 03:50:26;;;;;;;9.70;6.53;;;;;;;;;;5153761;27;20315;-20
2022/06/07 03:52:54;;;;;;;9.35;6.25;;;;;;;;;;5153638;27;20242;-21
2022/06/07 03:55:22;;;;;;;8.82;5.53;;;;;;;;;;5153252;27;20237;-20
2022/06/07 03:57:49;;;;;;;7.95;5.95;;;;;;;;;;5153331;27;20219;-20
2022/06/07 04:00:17;;;;;;;8.27;6.03;;;;;;;;;;5153833;27;20775;-21
2022/06/07 04:02:44;;;;;;;13.00;6.70;;;;;;;;;;5153448;27;20971;-20
2022/06/07 04:05:12;;;;;;;7.97;6.00;;;;;;;;;;5152899;27;20292;-20
2022/06/07 04:10:25;;;;;;;7.50;6.53;;;;;;;;;;5153769;27;20792;-20
2022/06/07 04:12:53;;;;;;;8.90;6.97;;;;;;;;;;5153262;27;20323;-21
2022/06/07 04:15:20;;;;;;;8.02;6.25;;;;;;;;;;5151825;27;20227;-21
2022/06/07 04:17:50;;;;;;;7.22;6.57;;;;;;;;;;5152823;27;20733;-21
2022/06/07 04:20:17;;;;;;;10.27;7.65;;;;;;;;;;5153516;27;20276;-21
2022/06/07 04:22:44;;;;;;;11.60;7.78;;;;;;;;;;5138377;27;20234;-21
2022/06/07 04:25:12;;;;;;;12.05;7.72;;;;;;;;;;5153285;27;20349;-20
2022/06/07 04:27:41;;;;;;;11.73;7.55;;;;;;;;;;5156890;27;20230;-21
2022/06/07 04:30:09;;;;;;;9.80;7.13;;;;;;;;;;5162543;27;20664;-20
2022/06/07 04:32:36;;;;;;;12.55;7.38;;;;;;;;;;5153121;27;20231;-20
2022/06/07 04:35:04;;;;;;;9.55;7.25;;;;;;;;;;5152429;27;21004;-20
2022/06/07 04:37:31;;;;;;;8.93;7.38;;;;;;;;;;5145844;27;20222;-20
2022/06/07 04:39:59;;;;;;;9.63;7.30;;;;;;;;;;5152449;27;20713;-21
2022/06/07 04:42:26;;;;;;;7.88;6.88;;;;;;;;;;5152913;27;20313;-21
2022/06/07 04:44:55;;;;;;;11.25;7.93;;;;;;;;;;5153169;27;20306;-21
2022/06/07 04:47:22;;;;;;;12.70;9.05;;;;;;;;;;5136873;27;20257;-21
2022/06/07 04:49:49;;;;;;;10.77;8.55;;;;;;;;;;5152275;27;20724;-21
2022/06/07 04:52:17;;;;;;;9.23;7.95;;;;;;;;;;5152579;27;20602;-21
2022/06/07 04:54:49;;;;;;;11.65;8.27;;;;;;;;;;5152875;27;20262;-21
2022/06/07 04:57:17;;;;;;;11.23;8.18;;;;;;;;;;5152704;27;20233;-21
2022/06/07 04:59:44;;;;;;;9.63;8.10;;;;;;;;;;5152754;27;20246;-20
2022/06/07 05:02:13;;;;;;;10.20;8.20;;;;;;;;;;5151686;27;21337;-21
2022/06/07 05:04:41;;;;;;;9.32;8.02;;;;;;;;;;5144736;27;21018;-20
2022/06/07 05:07:08;;;;;;;10.43;8.02;;;;;;;;;;5160785;27;20359;-20
2022/06/07 05:09:35;;;;;;;11.45;8.90;;;;;;;;;;5152246;27;20223;-20
2022/06/07 05:12:03;;;;;;;10.25;8.25;;;;;;;;;;5156365;27;20234;-20
2022/06/07 05:14:30;;;;;;;9.95;8.00;;;;;;;;;;5172081;27;20245;-20
2022/06/07 05:16:58;;;;;;;10.55;8.25;;;;;;;;;;5166494;27;20222;-21
2022/06/07 05:19:29;;;;;;;11.07;8.10;;;;;;;;;;5166653;27;20230;-20
2022/06/07 05:21:56;;;;;;;11.40;8.02;;;;;;;;;;5158792;27;20234;-20
2022/06/07 05:24:23;;;;;;;10.55;8.65;;;;;;;;;;5162772;27;20222;-20
2022/06/07 05:26:51;;;;;;;11.48;8.95;;;;;;;;;;5144005;27;20235;-21
2022/06/07 05:29:21;;;;;;;12.65;9.43;;;;;;;;;;5151046;27;20990;-20
2022/06/07 05:31:49;;;;;;;11.45;9.15;;;;;;;;;;5162309;27;20241;-20
2022/06/07 05:34:17;;;;;;;12.85;10.13;;;;;;;;;;5158346;27;20235;-20
2022/06/07 05:36:45;;;;;;;11.98;8.43;;;;;;;;;;5152305;27;20689;-21
2022/06/07 05:39:16;;;;;;;13.07;9.13;;;;;;;;;;5146339;27;20238;-20
2022/06/07 05:41:43;;;;;;;11.27;9.35;;;;;;;;;;5158137;27;20223;-21
2022/06/07 05:44:11;;;;;;;12.90;9.13;;;;;;;;;;5146226;27;20215;-20
2022/06/07 05:46:38;;;;;;;10.35;8.68;;;;;;;;;;5150706;27;21071;-21
2022/06/07 05:49:06;;;;;;;10.57;8.73;;;;;;;;;;5148561;27;21042;-21
2022/06/07 05:51:33;;;;;;;11.43;8.57;;;;;;;;;;5150328;27;20235;-20
2022/06/07 05:54:02;;;;;;;12.27;9.40;;;;;;;;;;5150132;27;20337;-20
2022/06/07 05:56:29;;;;;;;12.00;9.05;;;;;;;;;;5150934;27;20227;-20
2022/06/07 05:58:56;;;;;;;12.85;9.50;;;;;;;;;;5147598;27;20234;-21
2022/06/07 06:01:25;;;;;;;11.57;8.50;;;;;;;;;;5156342;27;20873;-21
2022/06/07 06:03:52;;;;;;;11.50;8.63;;;;;;;;;;5151764;27;21057;-21
2022/06/07 06:06:26;;;;;;;12.50;8.93;;;;;;;;;;5151747;27;20643;-20
2022/06/07 06:11:40;;;;;;;10.52;8.93;;;;;;;;;;5151092;27;20228;-21
2022/06/07 06:14:07;;;;;;;12.05;9.20;;;;;;;;;;5148209;27;20682;-21
2022/06/07 06:16:37;;;;;;;9.93;8.57;;;;;;;;;;5151679;27;20595;-20
2022/06/07 06:19:04;;;;;;;12.88;8.82;;;;;;;;;;5152262;27;20674;-21
2022/06/07 06:21:32;;;;;;;16.25;9.02;;;;;;;;;;5151244;27;20238;-21
2022/06/07 06:24:00;;;;;;;11.88;8.73;;;;;;;;;;5151826;27;20306;-20
2022/06/07 06:26:27;;;;;;;11.65;8.10;;;;;;;;;;5149040;27;20231;-20
2022/06/07 06:28:56;;;;;;;11.13;8.38;;;;;;;;;;5154160;27;20226;-21
2022/06/07 06:31:24;;;;;;;11.68;7.65;;;;;;;;;;5149472;27;20223;-21
2022/06/07 06:33:52;;;;;;;19.17;8.50;;;;;;;;;;5149856;27;20351;-21
2022/06/07 06:36:20;;;;;;;15.70;8.32;;;;;;;;;;5151548;27;20701;-21
2022/06/07 06:38:47;;;;;;;15.30;8.60;;;;;;;;;;5151604;27;20231;-21
2022/06/07 06:41:16;;;;;;;23.38;8.52;;;;;;;;;;5153016;27;20321;-21
2022/06/07 06:43:43;;;;;;;13.82;8.48;;;;;;;;;;5151545;27;20279;-20
2022/06/07 06:46:13;;;;;;;16.30;7.28;;;;;;;;;;5151659;27;20255;-20
2022/06/07 06:48:41;;;;;;;16.13;8.13;;;;;;;;;;5153560;27;20422;-20
2022/06/07 06:51:10;;;;;;;14.90;7.30;;;;;;;;;;5153875;27;20219;-20
2022/06/07 06:53:37;;;;;;;22.10;7.43;;;;;;;;;;5154228;27;20315;-21
2022/06/07 06:56:05;;;;;;;11.20;8.10;;;;;;;;;;5151444;27;20291;-20
2022/06/07 06:58:33;;;;;;;13.45;7.32;;;;;;;;;;5154326;27;20231;-20
2022/06/07 07:01:01;;;;;;;28.33;8.60;;;;;;;;;;5154115;27;20846;-20
2022/06/07 07:03:30;;;;;;;14.07;8.35;;;;;;;;;;5150597;27;20254;-21
2022/06/07 07:05:57;;;;;;;19.58;8.68;;;;;;;;;;5153717;27;20736;-20
2022/06/07 07:08:25;;;;;;;12.77;8.60;;;;;;;;;;5153413;27;21241;-21
2022/06/07 07:11:02;;;;;;;16.38;9.63;;;;;;;;;;5153784;27;20229;-21
2022/06/07 07:13:30;;;;;;;9.75;8.75;;;;;;;;;;5147301;27;20232;-20
2022/06/07 07:15:57;;;;;;;12.10;7.63;;;;;;;;;;5151675;27;20230;-21
2022/06/07 07:18:25;;;;;;;10.45;7.43;;;;;;;;;;5153627;27;20227;-21
2022/06/07 07:20:54;;;;;;;10.63;7.45;;;;;;;;;;5150799;27;20738;-20
2022/06/07 07:23:22;;;;;;;10.00;7.85;;;;;;;;;;5150269;27;20238;-20
2022/06/07 07:25:50;;;;;;;15.52;8.48;;;;;;;;;;5150261;27;20234;-21
2022/06/07 07:28:17;;;;;;;14.02;9.15;;;;;;;;;;5146363;27;20241;-20
2022/06/07 07:30:45;;;;;;;11.82;9.70;;;;;;;;;;5151350;27;20226;-20
2022/06/07 07:33:12;;;;;;;11.57;9.15;;;;;;;;;;5149598;27;20755;-20
2022/06/07 07:35:40;;;;;;;15.57;9.80;;;;;;;;;;5148294;27;21015;-21
2022/06/07 07:38:08;;;;;;;10.57;9.30;;;;;;;;;;5152694;27;21038;-21
2022/06/07 07:40:39;;;;;;;12.88;10.38;;;;;;;;;;5156030;27;20234;-21
2022/06/07 07:43:07;;;;;;;16.55;10.15;;;;;;;;;;5150346;27;20239;-21
2022/06/07 07:45:35;;;;;;;13.88;9.93;;;;;;;;;;5150815;27;20761;-21
2022/06/07 07:48:07;;;;;;;13.10;9.43;;;;;;;;;;5151094;27;20226;-21
2022/06/07 07:50:35;;;;;;;9.77;8.77;;;;;;;;;;5149831;27;20238;-21
2022/06/07 07:53:02;;;;;;;13.75;9.82;;;;;;;;;;5151912;27;20237;-21
2022/06/07 07:55:31;;;;;;;10.80;9.50;;;;;;;;;;5148450;27;20246;-21
2022/06/07 07:57:58;;;;;;;12.40;8.98;;;;;;;;;;5149923;27;20230;-20
2022/06/07 08:00:26;;;;;;;17.10;10.30;;;;;;;;;;5160396;27;20401;-21
2022/06/07 08:02:55;;;;;;;14.38;9.43;;;;;;;;;;5152212;27;20253;-21
2022/06/07 08:05:22;;;;;;;13.20;9.70;;;;;;;;;;5147531;27;20411;-21
2022/06/07 08:07:50;;;;;;;11.45;8.68;;;;;;;;;;5150550;27;20222;-22
2022/06/07 08:10:24;;;;;;;13.40;9.65;;;;;;;;;;5154555;27;20234;-20
2022/06/07 08:12:57;;;;;;;12.95;9.80;;;;;;;;;;5155226;27;20321;-21
2022/06/07 08:15:24;;;;;;;11.18;9.73;;;;;;;;;;5151224;27;20230;-22
2022/06/07 08:17:52;;;;;;;19.33;9.02;;;;;;;;;;5148171;27;20227;-21
2022/06/07 08:20:20;;;;;;;14.85;9.15;;;;;;;;;;5148463;27;20246;-22
2022/06/07 08:22:47;;;;;;;16.55;8.80;;;;;;;;;;5148558;27;20403;-21
2022/06/07 08:25:15;;;;;;;17.17;9.55;;;;;;;;;;5148530;27;20237;-21
2022/06/07 08:27:43;;;;;;;18.15;9.82;;;;;;;;;;5148316;27;20237;-21
2022/06/07 08:30:13;;;;;;;22.45;11.45;;;;;;;;;;5148011;27;20239;-21
2022/06/07 08:32:41;;;;;;;30.55;13.50;;;;;;;;;;5158820;27;20238;-21
2022/06/07 08:37:56;;;;;;;24.45;12.68;;;;;;;;;;5143526;27;20233;-21
2022/06/07 08:40:26;;;;;;;25.85;13.60;;;;;;;;;;5158621;27;20234;-21
2022/06/07 08:42:54;;;;;;;26.85;12.80;;;;;;;;;;5160925;27;20532;-21
2022/06/07 08:45:25;;;;;;;23.83;12.15;;;;;;;;;;5143916;27;20698;-21
2022/06/07 08:47:59;;;;;;;17.90;10.95;;;;;;;;;;5144345;27;20242;-21
2022/06/07 08:50:27;;;;;;;20.40;10.93;;;;;;;;;;5150603;27;20675;-21
2022/06/07 08:52:55;;;;;;;15.13;11.05;;;;;;;;;;5149228;27;20791;-23
2022/06/07 08:55:23;;;;;;;17.38;11.45;;;;;;;;;;5148824;27;20224;-22
2022/06/07 08:57:53;;;;;;;21.13;11.13;;;;;;;;;;5148792;27;20226;-21
2022/06/07 09:00:23;;;;;;;19.88;10.63;;;;;;;;;;5137171;27;20914;-21
2022/06/07 09:03:12;;;;;;;16.88;9.88;;;;;;;;;;5145097;27;20689;-20
2022/06/07 09:05:39;;;;;;;21.00;11.48;;;;;;;;;;5143672;27;20793;-20
2022/06/07 09:08:07;;;;;;;22.52;10.55;;;;;;;;;;5145102;27;21041;-20
2022/06/07 09:13:20;;;;;;;14.25;9.60;;;;;;;;;;5144366;27;20231;-20
2022/06/07 09:15:49;;;;;;;14.07;8.65;;;;;;;;;;5142938;27;20238;-20
2022/06/07 09:18:18;;;;;;;12.48;8.63;;;;;;;;;;5145739;27;20238;-21
2022/06/07 09:20:46;;;;;;;15.65;8.40;;;;;;;;;;5150966;27;20780;-20
2022/06/07 09:23:14;;;;;;;11.65;8.82;;;;;;;;;;5146143;27;20241;-20
2022/06/07 09:25:42;;;;;;;14.38;8.98;;;;;;;;;;5145628;27;20230;-21
2022/06/07 09:28:12;;;;;;;11.02;8.75;;;;;;;;;;5146310;27;20233;-21
2022/06/07 09:30:39;;;;;;;18.52;8.00;;;;;;;;;;5148425;27;20427;-21
2022/06/07 09:33:10;;;;;;;8.73;7.68;;;;;;;;;;5152566;27;20260;-20
2022/06/07 09:35:38;;;;;;;12.25;8.48;;;;;;;;;;5143836;27;20317;-21
2022/06/07 09:38:06;;;;;;;12.75;8.43;;;;;;;;;;5152068;27;20257;-21
2022/06/07 09:40:34;;;;;;;13.48;7.80;;;;;;;;;;5152291;27;20237;-21
2022/06/07 09:43:02;;;;;;;9.23;7.63;;;;;;;;;;5151936;27;21073;-21
2022/06/07 09:45:31;;;;;;;11.70;7.45;;;;;;;;;;5151760;27;20230;-20
2022/06/07 09:47:58;;;;;;;14.02;7.10;;;;;;;;;;5137078;27;20716;-20
2022/06/07 09:50:31;;;;;;;9.73;8.13;;;;;;;;;;5138493;27;20945;-21
2022/06/07 09:53:00;;;;;;;17.30;8.32;;;;;;;;;;5152817;27;20234;-21
2022/06/07 09:55:29;;;;;;;12.73;7.85;;;;;;;;;;5151893;27;20222;-21
2022/06/07 09:58:01;;;;;;;13.40;8.20;;;;;;;;;;5157594;27;20994;-21
2022/06/07 10:00:31;;;;;;;10.02;7.47;;;;;;;;;;5153614;27;20234;-21
2022/06/07 10:03:16;;;;;;;7.95;6.57;;;;;;;;;;5152367;27;20236;-21
2022/06/07 10:05:45;;;;;;;12.50;6.97;;;;;;;;;;5164168;27;20304;-21
2022/06/07 10:08:22;;;;;;;14.57;6.72;;;;;;;;;;5151171;27;20360;-21
2022/06/07 10:10:51;;;;;;;13.30;6.68;;;;;;;;;;5170213;27;20225;-20
2022/06/07 10:13:21;;;;;;;10.73;6.15;;;;;;;;;;5171031;27;20376;-20
2022/06/07 10:15:50;;;;;;;11.05;5.80;;;;;;;;;;5163134;27;20343;-20
2022/06/07 10:18:20;;;;;;;7.53;5.80;;;;;;;;;;5150487;27;20226;-20
2022/06/07 10:20:58;;;;;;;7.70;5.30;;;;;;;;;;5153583;27;20232;-20
2022/06/07 10:23:32;;;;;;;6.65;4.90;;;;;;;;;;5162410;27;20755;-20
2022/06/07 10:26:03;;;;;;;8.02;4.75;;;;;;;;;;5169001;27;20222;-20
2022/06/07 10:28:32;;;;;;;8.98;5.03;;;;;;;;;;5171050;27;21055;-20
2022/06/07 10:31:00;;;;;;;7.35;5.07;;;;;;;;;;5161232;27;20229;-20
2022/06/07 10:33:45;;;;;;;6.07;4.43;;;;;;;;;;5160915;27;20633;-21
2022/06/07 10:36:20;;;;;;;5.32;4.57;;;;;;;;;;5155147;27;20709;-21
2022/06/07 10:38:50;;;;;;;7.68;4.78;;;;;;;;;;5151478;27;20356;-21
2022/06/07 10:41:21;;;;;;;7.80;4.57;;;;;;;;;;5154418;27;20235;-21
2022/06/07 10:43:51;;;;;;;6.40;4.72;;;;;;;;;;5155070;27;20231;-21
2022/06/07 10:46:20;;;;;;;7.25;4.70;;;;;;;;;;5154730;27;20812;-21
2022/06/07 10:48:50;;;;;;;7.78;5.10;;;;;;;;;;5148119;27;20232;-21
2022/06/07 10:54:05;;;;;;;7.18;5.68;;;;;;;;;;5154124;27;20226;-21
2022/06/07 10:56:33;;;;;;;7.50;5.82;;;;;;;;;;5154637;27;20271;-21
2022/06/07 10:59:01;;;;;;;6.60;5.90;;;;;;;;;;5155024;27;20242;-21
2022/06/07 11:01:30;;;;;;;6.70;5.93;;;;;;;;;;5154474;27;20336;-20
2022/06/07 11:04:06;;;;;;;8.35;5.82;;;;;;;;;;5141685;27;21013;-20
2022/06/07 11:09:21;;;;;;;9.52;5.60;;;;;;;;;;5142033;27;20231;-20
2022/06/07 11:11:56;;;;;;;5.38;4.85;;;;;;;;;;5154406;27;20321;-21
2022/06/07 11:14:44;;;;;;;6.07;5.45;;;;;;;;;;5145593;27;20229;-20
2022/06/07 11:17:16;;;;;;;5.50;4.88;;;;;;;;;;5154283;27;20238;-20
2022/06/07 11:19:44;;;;;;;6.30;4.82;;;;;;;;;;5154640;27;20226;-20
2022/06/07 11:22:14;;;;;;;9.07;5.80;;;;;;;;;;5153916;27;20776;-21
2022/06/07 11:24:52;;;;;;;7.70;5.55;;;;;;;;;;5154286;27;20956;-20
2022/06/07 11:27:21;;;;;;;8.85;5.72;;;;;;;;;;5153731;27;20230;-20
2022/06/07 11:29:48;;;;;;;6.93;5.85;;;;;;;;;;5154294;27;20226;-20
2022/06/07 11:32:34;;;;;;;7.57;6.10;;;;;;;;;;5154027;27;21012;-20
2022/06/07 11:35:16;;;;;;;7.13;5.97;;;;;;;;;;5154300;27;20222;-21
2022/06/07 11:37:56;;;;;;;7.38;6.07;;;;;;;;;;5146238;27;21148;-21
2022/06/07 11:40:27;;;;;;;7.30;5.45;;;;;;;;;;5153884;27;20230;-21
2022/06/07 11:42:54;;;;;;;7.53;5.72;;;;;;;;;;5154072;27;20231;-21
2022/06/07 11:45:23;;;;;;;7.07;5.60;;;;;;;;;;5151245;27;20237;-21
2022/06/07 11:48:02;;;;;;;7.63;6.28;;;;;;;;;;5145815;27;20694;-21
2022/06/07 11:50:31;;;;;;;6.28;5.57;;;;;;;;;;5139624;27;20236;-21
2022/06/07 11:53:01;;;;;;;6.22;5.60;;;;;;;;;;5153427;27;20226;-21
2022/06/07 11:55:30;;;;;;;8.48;6.30;;;;;;;;;;5153580;27;20229;-21
2022/06/07 11:58:04;;;;;;;5.95;5.35;;;;;;;;;;5153506;27;20234;-21
2022/06/07 12:00:39;;;;;;;7.00;5.78;;;;;;;;;;5152706;27;20230;-20
2022/06/07 12:03:28;;;;;;;7.68;5.95;;;;;;;;;;5153471;27;20227;-20
2022/06/07 12:05:56;;;;;;;6.00;5.40;;;;;;;;;;5136106;27;20226;-20
2022/06/07 12:08:27;;;;;;;8.68;5.60;;;;;;;;;;5153522;27;21026;-20
2022/06/07 12:11:00;;;;;;;5.63;5.03;;;;;;;;;;5147939;27;20617;-20
2022/06/07 12:16:14;;;;;;;6.20;5.25;;;;;;;;;;5152407;27;20235;-21
2022/06/07 12:18:42;;;;;;;6.15;5.55;;;;;;;;;;5153183;27;20238;-20
2022/06/07 12:21:14;;;;;;;5.05;4.55;;;;;;;;;;5152440;27;20304;-20
2022/06/07 12:23:44;;;;;;;5.78;5.18;;;;;;;;;;5153230;27;20253;-20
2022/06/07 12:26:17;;;;;;;6.97;5.20;;;;;;;;;;5139031;27;20325;-21
2022/06/07 12:28:49;;;;;;;6.75;5.40;;;;;;;;;;5153412;27;20230;-20
2022/06/07 12:31:23;;;;;;;6.90;5.10;;;;;;;;;;5142069;27;20239;-20
2022/06/07 12:33:51;;;;;;;6.13;5.32;;;;;;;;;;5152989;27;20259;-20
2022/06/07 12:36:19;;;;;;;6.45;5.85;;;;;;;;;;5146823;27;20223;-21
2022/06/07 12:38:48;;;;;;;7.53;5.30;;;;;;;;;;5147747;27;20721;-20
2022/06/07 12:41:17;;;;;;;5.70;5.00;;;;;;;;;;5152897;27;20231;-20
2022/06/07 12:43:51;;;;;;;7.53;5.28;;;;;;;;;;5152473;27;20885;-21
2022/06/07 12:46:20;;;;;;;6.70;5.25;;;;;;;;;;5152746;27;20315;-20
2022/06/07 12:48:48;;;;;;;6.32;4.82;;;;;;;;;;5152739;27;20225;-20
2022/06/07 12:51:36;;;;;;;5.25;4.35;;;;;;;;;;5153108;27;20234;-20
2022/06/07 12:54:06;;;;;;;5.72;4.70;;;;;;;;;;5134541;27;20962;-20
2022/06/07 12:56:34;;;;;;;5.55;4.55;;;;;;;;;;5152875;27;20223;-21
2022/06/07 12:59:02;;;;;;;4.53;4.13;;;;;;;;;;5152458;27;20249;-20
2022/06/07 13:01:31;;;;;;;6.78;4.43;;;;;;;;;;5152429;27;20995;-20
2022/06/07 13:04:00;;;;;;;5.35;3.75;;;;;;;;;;5151943;27;20218;-21
2022/06/07 13:06:27;;;;;;;4.10;3.70;;;;;;;;;;5152356;27;20738;-21
2022/06/07 13:09:00;;;;;;;4.32;3.60;;;;;;;;;;5152798;27;20227;-20
2022/06/07 13:11:28;;;;;;;5.38;4.40;;;;;;;;;;5152498;27;20722;-20
2022/06/07 13:13:56;;;;;;;5.13;3.88;;;;;;;;;;5152561;27;20271;-21
2022/06/07 13:16:34;;;;;;;5.40;3.60;;;;;;;;;;5151782;27;20227;-21
2022/06/07 13:19:02;;;;;;;4.32;3.70;;;;;;;;;;5152061;27;20276;-20
2022/06/07 13:21:31;;;;;;;4.78;3.85;;;;;;;;;;5141966;27;20231;-20
2022/06/07 13:23:58;;;;;;;4.68;3.70;;;;;;;;;;5148621;27;20227;-20
2022/06/07 13:26:26;;;;;;;3.78;3.47;;;;;;;;;;5151684;27;20277;-21
2022/06/07 13:29:02;;;;;;;5.43;3.67;;;;;;;;;;5152023;27;21252;-21
2022/06/07 13:31:30;;;;;;;4.28;3.78;;;;;;;;;;5152285;27;20870;-20
2022/06/07 13:34:02;;;;;;;5.05;4.15;;;;;;;;;;5152131;27;20398;-20
2022/06/07 13:36:30;;;;;;;4.88;4.03;;;;;;;;;;5146025;27;20708;-20
2022/06/07 13:38:57;;;;;;;4.63;4.00;;;;;;;;;;5147810;27;20261;-20
2022/06/07 13:41:25;;;;;;;4.00;3.60;;;;;;;;;;5152098;27;20227;-20
2022/06/07 13:43:55;;;;;;;4.13;3.38;;;;;;;;;;5151914;27;20669;-20
2022/06/07 13:46:24;;;;;;;4.47;3.35;;;;;;;;;;5141189;27;20242;-20
2022/06/07 13:55:26;;;;;;;3.92;3.53;;;;;;;;;;5151645;27;20239;-21
2022/06/07 13:57:54;;;;;;;4.13;3.30;;;;;;;;;;5151884;27;20241;-20
2022/06/07 14:00:21;;;;;;;4.18;3.85;;;;;;;;;;5150762;27;20277;-21
2022/06/07 14:02:50;;;;;;;4.03;3.63;;;;;;;;;;5151627;27;20233;-20
2022/06/07 14:05:21;;;;;;;5.25;3.92;;;;;;;;;;5151929;27;20701;-20
2022/06/07 14:07:48;;;;;;;4.20;3.80;;;;;;;;;;5151640;27;20230;-21
2022/06/07 14:10:16;;;;;;;4.60;4.03;;;;;;;;;;5150674;27;20230;-21
2022/06/07 14:12:44;;;;;;;4.97;3.78;;;;;;;;;;5151554;27;20227;-21
2022/06/07 14:15:11;;;;;;;4.50;4.10;;;;;;;;;;5153294;27;20234;-21
2022/06/07 14:17:38;;;;;;;4.05;3.45;;;;;;;;;;5155201;27;20222;-21
2022/06/07 14:20:10;;;;;;;4.15;3.75;;;;;;;;;;5155277;27;20230;-21
2022/06/07 14:22:37;;;;;;;5.07;4.22;;;;;;;;;;5161235;27;20754;-21
2022/06/07 14:25:06;;;;;;;6.25;4.32;;;;;;;;;;5155159;27;20650;-21
2022/06/07 14:27:34;;;;;;;4.20;3.80;;;;;;;;;;5154925;27;20363;-20
2022/06/07 14:30:02;;;;;;;4.30;3.90;;;;;;;;;;5154937;27;20960;-20
2022/06/07 14:32:29;;;;;;;4.63;4.22;;;;;;;;;;5154394;27;20847;-21
2022/06/07 14:34:57;;;;;;;4.80;4.20;;;;;;;;;;5155012;27;20230;-20
2022/06/07 14:37:27;;;;;;;4.50;4.10;;;;;;;;;;5147236;27;20231;-20
2022/06/07 14:39:54;;;;;;;5.18;4.68;;;;;;;;;;5151205;27;20244;-21
2022/06/07 14:42:21;;;;;;;6.65;4.78;;;;;;;;;;5144528;27;20227;-20
2022/06/07 14:44:49;;;;;;;7.50;4.78;;;;;;;;;;5141776;27;20227;-21
2022/06/07 14:47:17;;;;;;;4.90;4.40;;;;;;;;;;5154886;27;20235;-20
2022/06/07 14:49:44;;;;;;;4.57;4.15;;;;;;;;;;5154098;27;20701;-21
2022/06/07 14:52:12;;;;;;;6.80;4.30;;;;;;;;;;5154779;27;20219;-21
2022/06/07 14:54:41;;;;;;;4.70;4.20;;;;;;;;;;5154104;27;20230;-21
2022/06/07 14:57:13;;;;;;;5.05;4.55;;;;;;;;;;5154573;27;20250;-20
2022/06/07 14:59:40;;;;;;;5.13;4.55;;;;;;;;;;5154498;27;20235;-21
2022/06/07 15:02:12;;;;;;;4.78;4.38;;;;;;;;;;5154689;27;20235;-20
2022/06/07 15:04:40;;;;;;;4.30;3.90;;;;;;;;;;5154897;27;20234;-21
2022/06/07 15:07:10;;;;;;;4.38;3.97;;;;;;;;;;5153958;27;20231;-21
2022/06/07 15:09:37;;;;;;;4.38;3.97;;;;;;;;;;5154510;27;20230;-20
2022/06/07 15:12:08;;;;;;;4.78;4.25;;;;;;;;;;5154410;27;20979;-20
2022/06/07 15:14:36;;;;;;;5.03;4.53;;;;;;;;;;5154090;27;20227;-20
2022/06/07 15:17:04;;;;;;;4.10;3.70;;;;;;;;;;5153366;27;20226;-21
2022/06/07 15:19:32;;;;;;;4.43;4.03;;;;;;;;;;5146460;27;20257;-20
2022/06/07 15:22:00;;;;;;;4.47;4.03;;;;;;;;;;5147364;27;20340;-21
2022/06/07 15:24:27;;;;;;;4.78;3.90;;;;;;;;;;5154201;27;20230;-21